Caldecotte, United Kingdom
Current Conditions -  °F | °C
As of 2:50 PM on Sunday 23 Nov 2014 (Local Time) from EGTC Reporting Station
Light Rain Light Rain  
Wind Chill: 45°   Ceiling: Unl
Heat Index: 45°   Visibility: 6mi
Dew Point: 45°   Wind: 3mph
Humidity: 100%   Direction: NA
Pressure: 30"   Gusts: NA
Location:  52.02°N, 0.71°W
Report Text: EGTC 231450Z VRB03KT 9999 -RA FEW008 SCT020 07/07 Q1016
Loading
Personal Weather Stations






























Interactive Weather Map New forecast layout! Learn more

10-Day Weather Forecast

Advertisements
Track Severe Weather on mobile